Aérodrome :
LOGIN :

S'inscrire | Disclaimer

   EN    FR    IT 

 










Légende :    VFR   VFR Marginal   IFR   IFR Intensif   IFR Très Intensif
Visi : 
Plafond : 
>= 8 km
>= 3000ft
5 à 8 km
1000 à 3000 ft
1500m à 5 km
500 à 1000 ft
800 à 1500m
200 à 500 ft
< 800m
< 200 ft
Symboles :   Orages  Brouillard  Fortes neiges  Fortes précipitations  Vent > 20 kt
SIGMETs :   Divers  Orages  Givrage  Turbulence  Onde Orograph.  Cendres Volcan.






- Altitude de l'aérodrome : 124 ft
- Code IATA : RNS


LFRN - Rennes

DERNIER METAR :
  • 140100Z AUTO 19007KT CAVOK 02/02 Q0993 NOSIG

METARs EXPIRÉS :
  • 140030Z AUTO 18004KT CAVOK 02/01 Q0993 NOSIG
  • 140000Z AUTO 20005KT CAVOK 03/02 Q0993 NOSIG
  • 132330Z AUTO 19008KT CAVOK 03/02 Q0993 NOSIG
  • 132300Z AUTO 19006KT CAVOK 03/02 Q0993 TEMPO 4000 SHRAGS BKN020CB
  • 132230Z AUTO 20008KT CAVOK 03/02 Q0993 TEMPO 4000 SHRAGS BKN020CB
  • 132200Z AUTO 20008KT CAVOK 03/03 Q0993 TEMPO 4000 SHRAGS BKN020CB

TAF TAF LFRN
Valide du 14 à 00h jusqu'au 15 à 00h UTC


132300Z 1400/1424 23010KT 9999 SCT030
BECMG 1400/1402 22005KT
PROB30
TEMPO 1404/1408 3000 BR
PROB30
TEMPO 1416/1421 SHRA SCT025CB
BECMG 1416/1418 VRB03KT
ATIS : +33 2 99 67 72 50



MET'MAP, la Météo Aéronautique d'un coup d'oeil ! - Copyright ORBIFLY Décembre 2007 - Disclaimer

ORBIFLY MET'MAP TEAM :

Programmation & Développement : Alexandra Zaïnal
Conception & Développement : Baudouin d'Aumeries
Co-Programmation & Développement : Marc-Olivier Méhu
Soutien technique & logistique : Manuel Goepfert

Contact : metmap@orbifly.com




SOURCES & CREDITS :

   NOAA